Time;durP1;ratioP1;P1;durP2;ratioP2;P2;SDS_P1;SDS_P2;PMS_P1;PMS_P2;Temp;Humidity;BMP_temperature;BMP_pressure;BME280_temperature;BME280_humidity;BME280_pressure;Samples;Min_cycle;Max_cycle;Signal;HPM_P1;HPM_P2
2022/03/03 00:01:48;;;;;;;31.17;18.33;;;;;;;0.38;71.29;101558.31;5094948;28;20214;-69
2022/03/03 00:04:15;;;;;;;27.20;16.90;;;;;;;0.38;71.49;101554.00;5094430;28;20182;-69
2022/03/03 00:06:42;;;;;;;32.20;18.77;;;;;;;0.38;71.12;101555.72;5094392;28;20438;-69
2022/03/03 00:09:08;;;;;;;31.90;18.87;;;;;;;0.36;71.10;101549.66;5094581;28;20449;-69
2022/03/03 00:11:35;;;;;;;35.43;18.87;;;;;;;0.26;71.46;101561.56;5094420;28;20453;-69
2022/03/03 00:14:01;;;;;;;31.73;18.27;;;;;;;0.25;71.46;101552.09;5094216;28;20966;-69
2022/03/03 00:16:28;;;;;;;26.97;17.33;;;;;;;0.27;71.52;101550.41;5094975;28;20434;-69
2022/03/03 00:18:54;;;;;;;28.03;18.63;;;;;;;0.23;71.44;101551.22;5094141;28;20438;-69
2022/03/03 00:21:21;;;;;;;30.00;18.03;;;;;;;0.22;71.53;101547.78;5094050;28;20461;-70
2022/03/03 00:23:48;;;;;;;29.13;18.03;;;;;;;0.13;72.04;101550.22;5094066;28;20434;-71
2022/03/03 00:26:14;;;;;;;23.03;17.33;;;;;;;0.07;72.05;101551.81;5093899;28;20911;-70
2022/03/03 00:28:41;;;;;;;29.33;18.27;;;;;;;-0.03;72.75;101555.97;5094525;28;20907;-70
2022/03/03 00:31:07;;;;;;;30.53;18.30;;;;;;;-0.11;73.28;101560.16;5094071;28;20446;-70
2022/03/03 00:33:34;;;;;;;33.30;17.57;;;;;;;-0.05;74.50;101560.25;5094028;28;20527;-70
2022/03/03 00:36:01;;;;;;;35.53;16.77;;;;;;;-0.14;75.97;101555.81;5094349;28;20437;-70
2022/03/03 00:38:28;;;;;;;28.43;18.10;;;;;;;-0.18;76.64;101566.03;5094378;28;20429;-70
2022/03/03 00:40:55;;;;;;;29.43;18.10;;;;;;;-0.16;77.50;101565.19;5093708;28;20808;-70
2022/03/03 00:43:21;;;;;;;29.10;19.00;;;;;;;-0.12;77.11;101558.41;5093707;28;20422;-70
2022/03/03 00:45:49;;;;;;;31.13;18.97;;;;;;;-0.04;76.14;101551.69;5093699;28;20442;-70
2022/03/03 00:48:15;;;;;;;29.57;18.80;;;;;;;0.06;75.13;101553.53;5093959;28;20497;-70
2022/03/03 00:50:42;;;;;;;35.27;19.00;;;;;;;0.15;74.21;101548.53;5093567;28;20442;-70
2022/03/03 00:53:08;;;;;;;30.07;19.80;;;;;;;0.19;73.96;101549.44;5093535;28;20816;-70
2022/03/03 00:55:35;;;;;;;32.80;20.20;;;;;;;0.28;73.29;101549.56;5094062;28;20435;-70
2022/03/03 00:58:03;;;;;;;30.23;19.07;;;;;;;0.24;73.21;101556.41;5093525;28;20443;-70
2022/03/03 01:00:30;;;;;;;35.63;19.60;;;;;;;0.31;72.88;101551.34;5093463;28;20448;-70
2022/03/03 01:02:56;;;;;;;28.37;18.47;;;;;;;0.26;73.18;101556.41;5093443;28;20425;-70
2022/03/03 01:05:23;;;;;;;30.30;18.40;;;;;;;0.33;72.86;101552.22;5093688;28;20423;-70
2022/03/03 01:07:50;;;;;;;26.30;17.60;;;;;;;0.35;72.87;101550.50;5093428;28;20433;-70
2022/03/03 01:10:16;;;;;;;29.63;18.60;;;;;;;0.30;72.76;101558.19;5093288;28;20427;-70
2022/03/03 01:12:43;;;;;;;29.40;19.30;;;;;;;0.29;72.82;101551.31;5093524;28;20434;-70
2022/03/03 01:15:10;;;;;;;33.07;19.40;;;;;;;0.26;73.07;101554.69;5093868;28;20430;-70
2022/03/03 01:17:37;;;;;;;31.07;19.40;;;;;;;0.27;72.60;101552.97;5093590;28;20445;-70
2022/03/03 01:20:07;;;;;;;30.33;18.13;;;;;;;0.24;72.90;101548.66;5093317;28;20445;-69
2022/03/03 01:22:34;;;;;;;31.70;18.63;;;;;;;0.17;73.24;101546.84;5093253;28;20427;-69
2022/03/03 01:25:01;;;;;;;32.23;19.13;;;;;;;0.19;73.10;101545.16;5093317;28;20457;-70
2022/03/03 01:27:31;;;;;;;34.57;20.10;;;;;;;0.18;73.28;101537.41;5093230;28;20436;-70
2022/03/03 01:29:57;;;;;;;34.63;20.27;;;;;;;0.19;73.17;101534.84;5093383;28;20436;-70
2022/03/03 01:32:24;;;;;;;30.03;18.17;;;;;;;0.12;73.28;101527.03;5093536;28;20777;-70
2022/03/03 01:34:50;;;;;;;41.80;20.87;;;;;;;0.13;73.17;101529.59;5093140;28;20457;-70
2022/03/03 01:37:17;;;;;;;32.93;19.40;;;;;;;0.07;73.41;101531.22;5094480;28;20410;-70
2022/03/03 01:39:43;;;;;;;37.60;19.13;;;;;;;0.00;73.80;101527.72;5097178;28;20426;-70
2022/03/03 01:42:13;;;;;;;38.57;20.07;;;;;;;0.07;73.50;101526.94;5097118;28;20457;-70
2022/03/03 01:44:47;;;;;;;39.00;20.13;;;;;;;0.06;73.57;101526.94;5097718;28;20410;-70
2022/03/03 01:47:25;;;;;;;27.67;17.63;;;;;;;0.09;73.15;101533.00;5097359;28;20426;-70
2022/03/03 01:49:54;;;;;;;35.57;19.23;;;;;;;0.07;73.38;101536.38;5097304;28;20787;-70
2022/03/03 01:52:21;;;;;;;31.20;19.07;;;;;;;-0.02;73.61;101525.09;5096952;28;20446;-69
2022/03/03 01:54:48;;;;;;;32.77;18.90;;;;;;;0.02;73.53;101520.88;5096876;28;20796;-69
2022/03/03 01:57:19;;;;;;;32.70;17.77;;;;;;;-0.01;73.48;101520.81;5096880;28;20441;-69
2022/03/03 01:59:47;;;;;;;30.87;20.13;;;;;;;-0.07;74.05;101520.75;5097105;28;20441;-69
2022/03/03 02:02:13;;;;;;;31.93;20.03;;;;;;;0.01;73.70;101519.16;5096954;28;20536;-69
2022/03/03 02:04:41;;;;;;;29.97;18.53;;;;;;;-0.11;73.98;101516.38;5097507;28;20461;-69
2022/03/03 02:07:09;;;;;;;34.97;19.17;;;;;;;-0.12;73.83;101517.25;5096991;28;20784;-69
2022/03/03 02:09:37;;;;;;;33.17;19.53;;;;;;;-0.19;74.25;101507.69;5096884;28;20776;-69
2022/03/03 02:12:04;;;;;;;37.00;20.30;;;;;;;-0.28;74.70;101513.56;5096528;28;20457;-69
2022/03/03 02:14:49;;;;;;;33.50;20.07;;;;;;;-0.23;74.48;101513.63;5096462;28;20987;-69
2022/03/03 02:17:16;;;;;;;29.37;18.43;;;;;;;-0.31;75.13;101505.78;5096867;28;20788;-69
2022/03/03 02:19:43;;;;;;;38.97;20.00;;;;;;;-0.31;75.51;101498.94;5096795;28;20433;-69
2022/03/03 02:22:09;;;;;;;35.80;19.20;;;;;;;-0.37;75.98;101495.38;5096354;28;20448;-69
2022/03/03 02:24:37;;;;;;;30.93;18.23;;;;;;;-0.50;76.29;101499.50;5096914;28;20922;-69
2022/03/03 02:27:05;;;;;;;35.90;18.57;;;;;;;-0.58;76.25;101501.06;5096342;28;20430;-69
2022/03/03 02:29:32;;;;;;;35.30;19.83;;;;;;;-0.58;76.17;101501.91;5096575;28;20445;-69
2022/03/03 02:32:00;;;;;;;37.50;19.80;;;;;;;-0.54;75.83;101489.13;5096177;28;20449;-69
2022/03/03 02:34:27;;;;;;;34.90;19.73;;;;;;;-0.67;76.26;101490.63;5096346;28;20454;-69
2022/03/03 02:36:53;;;;;;;39.13;19.97;;;;;;;-0.70;76.69;101495.72;5096427;28;20417;-69
2022/03/03 02:39:20;;;;;;;31.17;19.57;;;;;;;-0.67;76.87;101491.47;5096371;28;20808;-69
2022/03/03 02:41:47;;;;;;;42.43;20.33;;;;;;;-0.75;77.43;101487.91;5095941;28;20454;-69
2022/03/03 02:44:13;;;;;;;30.77;19.93;;;;;;;-0.85;78.36;101486.91;5095977;28;20426;-69
2022/03/03 02:46:40;;;;;;;27.23;18.00;;;;;;;-0.80;79.05;101488.66;5095934;28;20485;-69
2022/03/03 02:49:08;;;;;;;31.07;19.50;;;;;;;-0.81;79.48;101477.53;5096167;28;20426;-69
2022/03/03 02:51:36;;;;;;;32.50;18.90;;;;;;;-0.85;79.57;101478.31;5096038;28;20442;-69
2022/03/03 02:54:04;;;;;;;29.73;18.30;;;;;;;-0.90;79.67;101478.25;5095727;28;20458;-69
2022/03/03 02:56:30;;;;;;;37.30;20.17;;;;;;;-0.96;79.88;101472.97;5095752;28;20435;-69
2022/03/03 02:58:57;;;;;;;29.27;19.80;;;;;;;-1.00;79.71;101476.34;5095726;28;20816;-69
2022/03/03 03:01:23;;;;;;;34.07;20.57;;;;;;;-1.01;79.53;101478.88;5095563;28;20456;-69
2022/03/03 03:03:51;;;;;;;43.40;20.13;;;;;;;-1.00;79.25;101471.22;5095801;28;20427;-69
2022/03/03 03:06:17;;;;;;;33.50;18.73;;;;;;;-1.02;79.18;101470.28;5095588;28;20435;-69
2022/03/03 03:08:44;;;;;;;35.20;19.00;;;;;;;-1.08;79.37;101467.63;5095571;28;20429;-70
2022/03/03 03:11:10;;;;;;;33.33;19.00;;;;;;;-1.21;79.60;101466.53;5095448;28;20452;-69
2022/03/03 03:13:37;;;;;;;30.97;18.37;;;;;;;-1.18;79.36;101465.72;5095373;28;20520;-70
2022/03/03 03:16:03;;;;;;;38.30;20.67;;;;;;;-1.23;79.77;101467.34;5095383;28;20434;-70
2022/03/03 03:18:30;;;;;;;32.83;20.63;;;;;;;-1.25;79.68;101463.88;5095923;28;20580;-70
2022/03/03 03:20:57;;;;;;;31.03;20.13;;;;;;;-1.25;79.57;101461.31;5095709;28;20590;-69
2022/03/03 03:23:24;;;;;;;30.83;19.13;;;;;;;-1.31;79.65;101464.63;5095534;28;20430;-69
2022/03/03 03:25:51;;;;;;;36.50;19.33;;;;;;;-1.32;80.23;101464.59;5095211;28;20460;-69
2022/03/03 03:28:19;;;;;;;44.73;19.33;;;;;;;-1.32;80.41;101457.75;5095414;28;20794;-69
2022/03/03 03:30:46;;;;;;;30.50;18.57;;;;;;;-1.33;80.94;101461.16;5095033;28;20446;-69
2022/03/03 03:33:13;;;;;;;30.07;18.60;;;;;;;-1.37;81.44;101459.34;5095063;28;20437;-69
2022/03/03 03:35:40;;;;;;;32.90;18.70;;;;;;;-1.33;81.93;101455.16;5095283;28;20431;-69
2022/03/03 03:38:07;;;;;;;29.70;19.53;;;;;;;-1.40;82.28;101462.75;5095433;28;20434;-69
2022/03/03 03:40:33;;;;;;;28.23;18.47;;;;;;;-1.46;82.86;101459.19;5095043;28;20454;-69
2022/03/03 03:43:00;;;;;;;28.93;18.17;;;;;;;-1.48;82.87;101451.47;5095391;28;20426;-69
2022/03/03 03:45:26;;;;;;;34.13;19.20;;;;;;;-1.52;83.13;101459.94;5094661;28;20430;-69
2022/03/03 03:47:53;;;;;;;26.53;17.47;;;;;;;-1.57;83.52;101450.41;5094758;28;20513;-69
2022/03/03 03:50:20;;;;;;;30.07;18.60;;;;;;;-1.59;83.54;101450.38;5095255;28;20447;-69
2022/03/03 03:52:46;;;;;;;29.77;17.30;;;;;;;-1.63;83.85;101445.16;5077094;28;20434;-69
2022/03/03 03:55:13;;;;;;;34.53;17.47;;;;;;;-1.62;83.87;101445.19;5094581;28;20459;-69
2022/03/03 03:57:40;;;;;;;30.10;18.27;;;;;;;-1.66;84.14;101439.13;5094844;28;20438;-69
2022/03/03 04:00:13;;;;;;;33.53;17.70;;;;;;;-1.65;84.04;101437.41;5093763;28;20438;-69
2022/03/03 04:02:42;;;;;;;34.37;19.83;;;;;;;-1.70;83.77;101431.34;5094475;28;20442;-69
2022/03/03 04:05:09;;;;;;;31.80;17.93;;;;;;;-1.78;83.92;101432.88;5094687;28;20529;-69
2022/03/03 04:07:37;;;;;;;28.97;17.20;;;;;;;-1.74;83.70;101432.97;5094928;28;20445;-69
2022/03/03 04:10:04;;;;;;;33.17;18.20;;;;;;;-1.73;83.32;101423.56;5094433;28;20463;-69
2022/03/03 04:12:30;;;;;;;34.50;18.43;;;;;;;-1.79;83.66;101426.00;5094279;28;20426;-69
2022/03/03 04:14:57;;;;;;;35.97;19.30;;;;;;;-1.74;83.84;101429.53;5094202;28;20532;-69
2022/03/03 04:17:24;;;;;;;32.53;16.90;;;;;;;-1.77;84.10;101427.78;5094715;28;20423;-69
2022/03/03 04:19:51;;;;;;;38.13;19.63;;;;;;;-1.82;84.02;101428.50;5094071;28;20637;-69
2022/03/03 04:22:17;;;;;;;35.63;20.43;;;;;;;-1.86;84.59;101429.28;5094360;28;20457;-69
2022/03/03 04:24:44;;;;;;;35.37;20.30;;;;;;;-1.85;84.75;101431.03;5094637;28;20422;-69
2022/03/03 04:27:10;;;;;;;28.37;17.63;;;;;;;-1.86;85.07;101424.13;5094276;28;20430;-69
2022/03/03 04:29:37;;;;;;;29.33;18.43;;;;;;;-1.88;85.16;101423.25;5094271;28;20422;-69
2022/03/03 04:32:03;;;;;;;30.13;18.10;;;;;;;-1.83;85.45;101422.53;5093935;28;20962;-69
2022/03/03 04:34:30;;;;;;;31.90;18.47;;;;;;;-1.85;85.72;101416.50;5093768;28;20947;-70
2022/03/03 04:36:56;;;;;;;30.57;18.27;;;;;;;-1.89;85.55;101421.53;5093858;28;20430;-70
2022/03/03 04:39:23;;;;;;;34.13;18.60;;;;;;;-1.90;86.12;101415.53;5093764;28;20434;-70
2022/03/03 04:41:49;;;;;;;35.17;18.93;;;;;;;-1.94;85.91;101419.72;5093686;28;20449;-69
2022/03/03 04:44:16;;;;;;;27.97;17.50;;;;;;;-1.99;85.98;101415.34;5093756;28;20422;-69
2022/03/03 04:46:43;;;;;;;39.00;19.30;;;;;;;-2.00;85.87;101414.47;5093953;28;20434;-69
2022/03/03 04:49:09;;;;;;;38.37;19.27;;;;;;;-2.01;86.19;101417.00;5093899;28;20431;-69
2022/03/03 04:51:36;;;;;;;30.50;18.87;;;;;;;-2.03;85.82;101410.97;5094491;28;20450;-69
2022/03/03 04:54:05;;;;;;;29.23;16.77;;;;;;;-2.01;86.11;101425.56;5093490;28;20482;-69
2022/03/03 04:56:31;;;;;;;69.53;20.47;;;;;;;-2.03;86.56;101426.38;5093552;28;20445;-69
2022/03/03 04:58:58;;;;;;;32.17;18.93;;;;;;;-2.08;86.46;101420.25;5093795;28;20804;-69
2022/03/03 05:01:25;;;;;;;35.30;16.73;;;;;;;-2.10;86.53;101421.94;5093477;28;20454;-70
2022/03/03 05:03:52;;;;;;;33.77;18.60;;;;;;;-2.09;86.44;101418.53;5093448;28;20480;-70
2022/03/03 05:06:18;;;;;;;48.73;19.80;;;;;;;-2.08;86.65;101422.81;5093439;28;20928;-70
2022/03/03 05:08:45;;;;;;;33.87;19.03;;;;;;;-2.17;86.70;101420.06;5093491;28;20426;-70
2022/03/03 05:11:11;;;;;;;29.57;17.30;;;;;;;-2.18;86.87;101414.06;5093319;28;20824;-69
2022/03/03 05:13:38;;;;;;;33.17;19.73;;;;;;;-2.09;87.21;101413.41;5093369;28;20433;-69
2022/03/03 05:16:05;;;;;;;44.73;20.30;;;;;;;-2.08;87.63;101399.72;5093306;28;20462;-69
2022/03/03 05:18:32;;;;;;;35.50;18.97;;;;;;;-2.04;88.17;101396.41;5093547;28;20502;-69
2022/03/03 05:20:58;;;;;;;31.57;17.50;;;;;;;-2.06;88.21;101398.97;5093824;28;20457;-69
2022/03/03 05:23:25;;;;;;;32.03;18.33;;;;;;;-2.12;88.85;101401.38;5093572;28;20426;-69
2022/03/03 05:25:51;;;;;;;40.20;19.57;;;;;;;-2.08;89.13;101398.03;5093782;28;20441;-69
2022/03/03 05:28:18;;;;;;;34.53;18.40;;;;;;;-2.11;89.19;101395.41;5093193;28;20781;-69
2022/03/03 05:30:44;;;;;;;39.13;18.90;;;;;;;-2.04;88.61;101402.41;5093136;28;20453;-69
2022/03/03 05:33:11;;;;;;;39.47;19.50;;;;;;;-1.97;88.45;101401.69;5093494;28;20513;-69
2022/03/03 05:35:40;;;;;;;36.67;18.60;;;;;;;-1.95;88.52;101400.03;5093054;28;20466;-69
2022/03/03 05:38:06;;;;;;;35.60;19.43;;;;;;;-1.98;88.49;101401.69;5093118;28;20427;-69
2022/03/03 05:40:33;;;;;;;35.57;18.67;;;;;;;-1.98;88.34;101399.13;5093198;28;20454;-69
2022/03/03 05:42:59;;;;;;;33.80;19.37;;;;;;;-1.97;88.05;101399.13;5093378;28;20430;-70
2022/03/03 05:45:26;;;;;;;35.03;18.67;;;;;;;-1.81;87.45;101400.31;5093193;28;20414;-70
2022/03/03 05:47:54;;;;;;;30.13;18.87;;;;;;;-1.91;87.71;101397.53;5092940;28;20947;-70
2022/03/03 05:50:20;;;;;;;38.47;19.50;;;;;;;-2.01;87.39;101397.31;5093407;28;20469;-69
2022/03/03 05:52:47;;;;;;;35.87;20.30;;;;;;;-1.93;87.34;101400.06;5092937;28;20927;-70
2022/03/03 05:55:13;;;;;;;36.67;20.60;;;;;;;-1.88;87.02;101395.03;5093319;28;20780;-69
2022/03/03 05:57:46;;;;;;;48.50;20.17;;;;;;;-1.81;86.60;101399.44;5093487;28;20441;-69
2022/03/03 06:00:16;;;;;;;35.30;20.03;;;;;;;-1.93;87.03;101405.19;5092792;28;20409;-69
2022/03/03 06:02:51;;;;;;;49.70;19.43;;;;;;;-1.94;87.24;101403.47;5093116;28;20423;-69
2022/03/03 06:05:28;;;;;;;39.13;20.53;;;;;;;-1.89;86.69;101408.69;5092855;28;20513;-69
2022/03/03 06:08:02;;;;;;;41.30;19.10;;;;;;;-1.89;86.48;101408.69;5093432;28;20414;-69
2022/03/03 06:10:33;;;;;;;31.13;19.27;;;;;;;-1.88;86.47;101405.28;5093591;28;20788;-69
2022/03/03 06:13:15;;;;;;;56.77;21.47;;;;;;;-1.82;86.55;101413.13;5093373;28;20411;-69
2022/03/03 06:15:44;;;;;;;35.53;20.63;;;;;;;-1.84;86.80;101409.66;5092999;28;20442;-69
2022/03/03 06:18:11;;;;;;;36.73;19.33;;;;;;;-1.80;86.78;101407.16;5093234;28;20430;-69
2022/03/03 06:20:39;;;;;;;37.43;17.80;;;;;;;-1.86;87.19;101403.59;5092840;28;20824;-69
2022/03/03 06:23:06;;;;;;;36.03;19.50;;;;;;;-1.85;86.94;101401.09;5093886;28;20430;-69
2022/03/03 06:25:32;;;;;;;43.10;20.57;;;;;;;-1.94;86.60;101406.03;5096343;28;20422;-69
2022/03/03 06:27:59;;;;;;;42.30;19.07;;;;;;;-2.01;86.60;101404.16;5096522;28;20434;-69
2022/03/03 06:30:26;;;;;;;34.20;19.17;;;;;;;-2.07;86.50;101407.50;5096059;28;20466;-69
2022/03/03 06:32:53;;;;;;;34.63;18.63;;;;;;;-2.05;86.46;101400.69;5096068;28;20426;-69
2022/03/03 06:35:19;;;;;;;47.53;20.23;;;;;;;-2.02;86.52;101397.31;5095914;28;20465;-69
2022/03/03 06:37:45;;;;;;;48.87;20.73;;;;;;;-1.98;86.74;101396.53;5096136;28;20808;-69
2022/03/03 06:40:12;;;;;;;34.83;19.47;;;;;;;-1.92;86.74;101395.81;5096024;28;20426;-69
2022/03/03 06:42:39;;;;;;;41.17;19.70;;;;;;;-1.88;86.53;101400.16;5096011;28;20781;-69
2022/03/03 06:45:06;;;;;;;35.80;19.53;;;;;;;-1.85;86.56;101395.09;5096148;28;20419;-69
2022/03/03 06:47:34;;;;;;;46.13;20.70;;;;;;;-1.81;86.81;101404.56;5096365;28;20434;-69
2022/03/03 06:50:02;;;;;;;45.23;21.30;;;;;;;-1.79;86.74;101397.75;5095721;28;20430;-69
2022/03/03 06:52:33;;;;;;;44.17;20.17;;;;;;;-1.72;86.73;101400.47;5095702;28;20431;-69
2022/03/03 06:55:00;;;;;;;36.43;20.87;;;;;;;-1.61;86.86;101392.16;5095711;28;20465;-69
2022/03/03 06:57:29;;;;;;;34.90;19.67;;;;;;;-1.58;87.57;101398.19;5096262;28;20415;-69
2022/03/03 07:00:00;;;;;;;31.90;19.10;;;;;;;-1.48;87.30;101407.81;5095670;28;20434;-70
2022/03/03 07:02:27;;;;;;;41.50;19.83;;;;;;;-1.35;86.99;101396.06;5095900;28;20768;-69
2022/03/03 07:04:55;;;;;;;47.97;20.80;;;;;;;-1.31;85.84;101402.13;5095556;28;20481;-70
2022/03/03 07:07:23;;;;;;;41.03;20.43;;;;;;;-1.30;85.58;101398.69;5095497;28;20427;-70
2022/03/03 07:09:50;;;;;;;46.97;21.30;;;;;;;-1.31;85.01;101407.25;5095689;28;20438;-70
2022/03/03 07:12:17;;;;;;;51.40;20.50;;;;;;;-1.23;84.57;101410.81;5096072;28;20808;-70
2022/03/03 07:14:44;;;;;;;36.97;20.27;;;;;;;-1.19;84.79;101415.19;5095350;28;20454;-70
2022/03/03 07:17:29;;;;;;;43.73;20.27;;;;;;;-1.06;85.50;101419.72;5095545;28;20432;-70
2022/03/03 07:20:06;;;;;;;42.50;21.63;;;;;;;-0.90;85.52;101425.97;5095423;28;20421;-70
2022/03/03 07:22:43;;;;;;;34.30;19.20;;;;;;;-0.77;85.51;101420.19;5095253;28;20780;-70
2022/03/03 07:25:13;;;;;;;34.80;20.10;;;;;;;-0.46;83.56;101428.38;5095483;28;20768;-70
2022/03/03 07:27:44;;;;;;;34.47;18.90;;;;;;;-0.33;83.35;101428.59;5095174;28;20938;-70
2022/03/03 07:30:15;;;;;;;38.77;21.00;;;;;;;-0.22;82.59;101422.72;5095329;28;20415;-70
2022/03/03 07:32:58;;;;;;;38.43;20.27;;;;;;;-0.02;82.03;101426.44;5095264;28;20411;-70
2022/03/03 07:35:25;;;;;;;38.47;20.37;;;;;;;0.24;80.46;101429.34;5094281;28;20453;-70
2022/03/03 07:37:57;;;;;;;42.20;19.50;;;;;;;0.27;80.36;101437.97;5094842;28;20441;-70
2022/03/03 07:40:29;;;;;;;49.43;19.30;;;;;;;0.40;79.78;101438.13;5095373;28;20538;-70
2022/03/03 07:42:57;;;;;;;43.33;21.93;;;;;;;0.54;78.53;101434.00;5095144;28;20415;-70
2022/03/03 07:45:25;;;;;;;34.77;19.87;;;;;;;0.61;78.27;101424.63;5095216;28;20423;-70
2022/03/03 07:47:57;;;;;;;35.87;19.77;;;;;;;0.81;76.96;101429.13;5094958;28;20540;-70
2022/03/03 07:50:25;;;;;;;49.67;19.50;;;;;;;0.80;77.48;101434.28;5094582;28;20446;-70
2022/03/03 07:52:53;;;;;;;29.90;19.03;;;;;;;0.91;76.32;101436.94;5094933;28;20426;-70
2022/03/03 07:55:20;;;;;;;31.30;20.10;;;;;;;1.00;75.76;101439.59;5094602;28;20461;-70
2022/03/03 07:57:56;;;;;;;40.97;20.87;;;;;;;1.08;75.46;101438.84;5076405;28;20439;-70
2022/03/03 08:00:23;;;;;;;38.30;21.27;;;;;;;1.23;74.69;101430.38;5094455;28;20800;-70
2022/03/03 08:02:53;;;;;;;45.40;22.03;;;;;;;1.20;74.41;101432.06;5094212;28;20475;-70
2022/03/03 08:05:21;;;;;;;34.53;20.40;;;;;;;1.30;74.97;101432.16;5076851;28;20418;-70
2022/03/03 08:07:49;;;;;;;42.17;21.37;;;;;;;1.40;74.64;101427.94;5094310;28;20422;-71
2022/03/03 08:10:15;;;;;;;44.10;21.80;;;;;;;1.52;73.64;101433.19;5094769;28;20430;-70
2022/03/03 08:12:43;;;;;;;41.90;22.30;;;;;;;1.43;74.26;101432.25;5094233;28;20450;-70
2022/03/03 08:15:11;;;;;;;37.63;20.20;;;;;;;1.65;73.44;101435.00;5094148;28;20454;-71
2022/03/03 08:17:38;;;;;;;32.90;20.23;;;;;;;1.69;74.15;101438.47;5094252;28;20839;-71
2022/03/03 08:20:07;;;;;;;34.67;22.03;;;;;;;1.74;73.55;101436.78;5094429;28;20449;-70
2022/03/03 08:22:37;;;;;;;34.43;19.33;;;;;;;2.06;71.95;101439.53;5094132;28;20184;-70
2022/03/03 08:25:06;;;;;;;32.97;18.93;;;;;;;2.18;71.67;101436.16;5094116;28;20429;-70
2022/03/03 08:27:33;;;;;;;32.53;19.03;;;;;;;2.20;71.44;101443.03;5094286;28;20522;-70
2022/03/03 08:30:00;;;;;;;36.53;21.50;;;;;;;2.60;70.48;101437.19;5075749;28;20196;-70
2022/03/03 08:32:34;;;;;;;35.70;20.20;;;;;;;2.64;70.46;101439.75;5093912;28;20178;-70
2022/03/03 08:35:12;;;;;;;34.60;20.90;;;;;;;2.82;68.77;101432.94;5094153;28;20212;-70
2022/03/03 08:37:53;;;;;;;38.20;20.03;;;;;;;2.85;68.50;101426.03;5094347;28;20192;-71
2022/03/03 08:40:22;;;;;;;36.77;20.43;;;;;;;3.09;66.39;101421.75;5093812;28;20220;-70
2022/03/03 08:42:56;;;;;;;43.57;20.43;;;;;;;3.16;67.92;101423.50;5094057;28;20245;-70
2022/03/03 08:45:23;;;;;;;30.27;19.83;;;;;;;3.24;68.23;101422.63;5093885;28;20539;-70
2022/03/03 08:47:58;;;;;;;34.97;20.67;;;;;;;3.39;66.74;101426.94;5093940;28;20193;-71
2022/03/03 08:50:31;;;;;;;30.40;20.23;;;;;;;3.57;66.50;101420.88;5094685;28;20593;-68
2022/03/03 08:52:59;;;;;;;48.27;19.90;;;;;;;3.77;63.95;101411.34;5093995;28;20596;-68
2022/03/03 08:55:27;;;;;;;31.77;19.73;;;;;;;3.84;63.98;101410.47;5093818;28;20282;-70
2022/03/03 08:57:54;;;;;;;28.23;18.00;;;;;;;4.09;64.46;101408.66;5093878;28;20185;-70
2022/03/03 09:00:22;;;;;;;30.77;21.17;;;;;;;4.36;64.36;101407.69;5093689;28;20567;-70
2022/03/03 09:02:49;;;;;;;28.10;18.87;;;;;;;4.56;64.36;101396.34;5093532;28;20185;-70
2022/03/03 09:05:16;;;;;;;38.83;20.83;;;;;;;4.75;60.82;101407.47;5093760;28;20178;-70
2022/03/03 09:07:43;;;;;;;32.30;18.60;;;;;;;4.83;59.68;101400.50;5075491;28;20194;-70
2022/03/03 09:10:10;;;;;;;30.23;19.03;;;;;;;4.80;60.98;101397.94;5093584;28;20186;-69
2022/03/03 09:12:37;;;;;;;32.10;18.97;;;;;;;4.89;60.30;101395.28;5093633;28;20185;-70
2022/03/03 09:15:05;;;;;;;33.97;19.10;;;;;;;4.96;60.01;101399.56;5093279;28;20186;-70
2022/03/03 09:17:33;;;;;;;30.73;20.10;;;;;;;5.09;59.69;101398.59;5093490;28;20178;-70
2022/03/03 09:20:02;;;;;;;32.67;20.10;;;;;;;5.24;59.86;101398.47;5093137;28;20201;-70
2022/03/03 09:22:29;;;;;;;26.83;18.80;;;;;;;5.49;58.72;101400.84;5093214;28;20647;-70
2022/03/03 09:24:55;;;;;;;30.60;18.37;;;;;;;5.62;58.44;101404.19;5093516;28;20195;-70
2022/03/03 09:27:23;;;;;;;29.30;18.53;;;;;;;5.70;58.31;101398.03;5093528;28;20193;-70
2022/03/03 09:29:50;;;;;;;28.07;18.87;;;;;;;5.99;58.72;101396.88;5093171;28;20186;-70
2022/03/03 09:32:16;;;;;;;26.03;17.37;;;;;;;6.26;56.59;101393.09;5093073;28;20217;-70
2022/03/03 09:34:46;;;;;;;30.27;19.30;;;;;;;6.29;54.84;101387.88;5093737;28;20182;-70
2022/03/03 09:37:13;;;;;;;31.00;19.67;;;;;;;6.31;54.24;101399.97;5093374;28;20205;-70
2022/03/03 09:39:40;;;;;;;31.90;19.50;;;;;;;6.24;54.12;101390.53;5093681;28;20179;-70
2022/03/03 09:42:08;;;;;;;25.90;18.57;;;;;;;6.44;54.74;101392.88;5093010;28;20214;-70
2022/03/03 09:44:34;;;;;;;23.93;18.33;;;;;;;6.68;54.30;101378.66;5093354;28;20174;-70
2022/03/03 09:47:02;;;;;;;28.57;19.07;;;;;;;6.87;53.14;101384.44;5093333;28;20630;-70
2022/03/03 09:49:29;;;;;;;27.20;17.20;;;;;;;6.90;51.21;101381.78;5093302;28;20183;-70
2022/03/03 09:51:55;;;;;;;24.80;18.20;;;;;;;6.87;50.49;101374.91;5093422;28;20214;-70
2022/03/03 09:54:22;;;;;;;26.83;18.00;;;;;;;7.10;52.47;101376.28;5092947;28;20180;-70
2022/03/03 09:56:49;;;;;;;22.77;16.13;;;;;;;7.42;49.57;101371.34;5093092;28;20210;-70
2022/03/03 09:59:15;;;;;;;26.30;16.30;;;;;;;7.79;49.76;101375.06;5095799;28;20600;-70
2022/03/03 10:01:45;;;;;;;25.97;17.50;;;;;;;8.02;49.94;101372.84;5096958;28;20217;-70
2022/03/03 10:04:16;;;;;;;24.10;16.57;;;;;;;7.96;46.49;101372.97;5096807;28;20182;-70
2022/03/03 10:06:42;;;;;;;22.27;16.40;;;;;;;8.00;46.53;101365.06;5096959;28;20193;-70
2022/03/03 10:09:10;;;;;;;23.23;16.63;;;;;;;7.87;46.24;101374.00;5096904;28;20194;-70
2022/03/03 10:12:00;;;;;;;18.90;16.20;;;;;;;7.89;45.72;101360.94;5096522;28;20267;-70
2022/03/03 10:14:33;;;;;;;25.03;16.87;;;;;;;8.07;45.83;101364.91;5096442;28;20193;-70
2022/03/03 10:17:00;;;;;;;28.97;16.60;;;;;;;8.35;45.90;101363.47;5096480;28;20244;-70
2022/03/03 10:19:57;;;;;;;24.50;16.33;;;;;;;8.29;45.86;101366.19;5096703;28;20174;-70
2022/03/03 10:22:46;;;;;;;22.43;16.47;;;;;;;8.63;45.76;101371.53;5096704;28;20210;-70
2022/03/03 10:25:32;;;;;;;24.27;15.70;;;;;;;8.69;44.41;101368.81;5096710;28;20181;-70
2022/03/03 10:28:09;;;;;;;23.90;16.33;;;;;;;8.75;43.54;101365.19;5096485;28;20170;-70
2022/03/03 10:31:09;;;;;;;19.03;15.37;;;;;;;8.62;43.45;101367.22;5096769;28;20205;-70
2022/03/03 10:33:44;;;;;;;22.50;15.47;;;;;;;8.87;42.94;101369.28;5096495;28;20174;-71
2022/03/03 10:36:14;;;;;;;20.03;15.27;;;;;;;9.00;43.32;101355.00;5096441;28;20198;-70
2022/03/03 10:38:47;;;;;;;29.43;15.43;;;;;;;9.10;42.13;101365.22;5096141;28;20213;-70
2022/03/03 10:41:42;;;;;;;20.50;15.47;;;;;;;8.98;41.97;101365.50;5096013;28;20575;-70
2022/03/03 10:44:12;;;;;;;20.57;15.20;;;;;;;9.19;42.67;101363.25;5096304;28;20516;-70
2022/03/03 10:47:00;;;;;;;21.73;14.73;;;;;;;9.07;41.89;101353.97;5096250;28;20201;-70
2022/03/03 10:49:28;;;;;;;20.23;16.17;;;;;;;9.17;42.04;101357.22;5096216;28;20668;-70
2022/03/03 10:52:08;;;;;;;23.67;16.80;;;;;;;9.19;42.53;101364.13;5095728;28;20297;-70
2022/03/03 10:54:51;;;;;;;22.27;15.90;;;;;;;9.33;42.05;101374.22;5096075;28;20189;-70
2022/03/03 10:57:33;;;;;;;21.37;15.03;;;;;;;9.64;42.06;101362.09;5095817;28;20558;-70
2022/03/03 11:00:03;;;;;;;22.17;15.20;;;;;;;9.78;40.43;101360.81;5095606;28;20191;-70
2022/03/03 11:02:30;;;;;;;20.23;15.83;;;;;;;9.65;42.47;101366.41;5096012;28;20171;-71
2022/03/03 11:04:57;;;;;;;16.47;14.77;;;;;;;10.04;42.97;101358.34;5096172;28;20207;-70
2022/03/03 11:07:24;;;;;;;20.90;16.70;;;;;;;10.15;41.38;101361.50;5095525;28;20270;-70
2022/03/03 11:09:51;;;;;;;18.37;15.43;;;;;;;10.10;41.18;101367.78;5095641;28;20189;-70
2022/03/03 11:12:19;;;;;;;21.97;15.73;;;;;;;10.26;40.27;101361.22;5095442;28;20681;-70
2022/03/03 11:14:46;;;;;;;25.67;16.10;;;;;;;10.03;40.07;101358.38;5095961;28;20519;-70
2022/03/03 11:17:20;;;;;;;18.50;15.43;;;;;;;10.36;40.09;101346.97;5095542;28;20200;-71
2022/03/03 11:19:50;;;;;;;26.33;16.60;;;;;;;10.42;41.13;101349.38;5095607;28;20269;-71